Time;durP1;ratioP1;P1;durP2;ratioP2;P2;SDS_P1;SDS_P2;PMS_P1;PMS_P2;Temp;Humidity;BMP_temperature;BMP_pressure;BME280_temperature;BME280_humidity;BME280_pressure;Samples;Min_cycle;Max_cycle;Signal;HPM_P1;HPM_P2
2022/05/22 00:01:57;;;;;;;11.20;4.10;;;;;;;10.42;100.00;96832.88;5049612;28;20566;-73
2022/05/22 00:04:23;;;;;;;9.48;3.97;;;;;;;10.46;100.00;96821.47;5048681;28;20484;-74
2022/05/22 00:06:48;;;;;;;9.88;3.78;;;;;;;10.30;100.00;96812.34;5050995;28;20044;-72
2022/05/22 00:09:14;;;;;;;9.23;3.13;;;;;;;10.39;100.00;96818.13;5050553;28;20035;-73
2022/05/22 00:11:40;;;;;;;8.23;3.45;;;;;;;10.43;100.00;96821.94;5050023;28;20040;-74
2022/05/22 00:14:05;;;;;;;10.15;4.32;;;;;;;10.46;100.00;96823.31;5048448;28;20033;-74
2022/05/22 00:16:40;;;;;;;9.38;3.75;;;;;;;10.47;100.00;96827.63;5049234;28;20068;-73
2022/05/22 00:19:10;;;;;;;12.60;4.10;;;;;;;10.49;100.00;96833.53;5050361;28;20040;-74
2022/05/22 00:21:37;;;;;;;10.48;4.25;;;;;;;10.42;100.00;96836.34;5050302;28;20041;-73
2022/05/22 00:24:04;;;;;;;11.93;4.50;;;;;;;10.45;100.00;96832.41;5048815;28;20044;-72
2022/05/22 00:26:30;;;;;;;10.13;4.60;;;;;;;10.44;100.00;96828.91;5048429;28;20091;-75
2022/05/22 00:28:56;;;;;;;13.40;5.05;;;;;;;10.31;100.00;96832.69;5048759;28;20455;-73
2022/05/22 00:31:22;;;;;;;13.75;4.80;;;;;;;10.29;100.00;96829.44;5054541;28;20609;-71
2022/05/22 00:33:47;;;;;;;9.40;4.47;;;;;;;10.33;100.00;96827.88;5048929;28;20341;-72
2022/05/22 00:36:13;;;;;;;13.77;5.38;;;;;;;10.33;100.00;96827.06;5051080;28;20441;-73
2022/05/22 00:38:38;;;;;;;9.80;3.97;;;;;;;10.29;100.00;96821.41;5048129;28;20037;-75
2022/05/22 00:41:06;;;;;;;9.32;4.43;;;;;;;10.19;100.00;96821.16;5049967;28;20040;-74
2022/05/22 00:43:42;;;;;;;5.45;3.80;;;;;;;9.92;100.00;96826.22;5052660;28;20041;-73
2022/05/22 00:46:11;;;;;;;9.25;4.40;;;;;;;9.84;100.00;96815.91;5051511;28;20041;-75
2022/05/22 00:48:39;;;;;;;12.65;4.57;;;;;;;9.90;100.00;96822.16;5047812;28;20187;-73
2022/05/22 00:51:22;;;;;;;11.93;4.30;;;;;;;9.82;100.00;96817.19;5048384;28;20041;-72
2022/05/22 00:54:13;;;;;;;11.43;4.13;;;;;;;9.74;100.00;96819.16;5048566;28;20049;-74
2022/05/22 00:56:44;;;;;;;9.90;3.85;;;;;;;9.76;100.00;96816.25;5051049;28;20044;-74
2022/05/22 00:59:14;;;;;;;14.90;4.55;;;;;;;9.80;100.00;96805.91;5054575;28;20178;-72
2022/05/22 01:01:41;;;;;;;10.70;3.80;;;;;;;9.85;100.00;96804.16;5047538;28;20230;-74
2022/05/22 01:04:10;;;;;;;10.05;4.00;;;;;;;9.88;100.00;96795.66;5049374;28;20757;-74
2022/05/22 01:06:45;;;;;;;13.20;3.85;;;;;;;9.90;100.00;96796.25;5048674;28;20504;-72
2022/05/22 01:09:13;;;;;;;10.52;3.45;;;;;;;9.73;100.00;96798.84;5046594;28;20116;-72
2022/05/22 01:11:39;;;;;;;6.43;3.40;;;;;;;9.77;100.00;96780.47;5053975;28;20032;-73
2022/05/22 01:14:10;;;;;;;9.82;3.00;;;;;;;9.80;100.00;96787.19;5048295;28;20094;-72
2022/05/22 01:16:37;;;;;;;12.00;3.30;;;;;;;9.74;100.00;96788.97;5054217;28;20037;-73
2022/05/22 01:19:11;;;;;;;9.15;3.20;;;;;;;9.79;100.00;96783.72;5049982;28;20043;-73
2022/05/22 01:21:37;;;;;;;10.98;3.65;;;;;;;9.81;100.00;96791.50;5048904;28;20033;-74
2022/05/22 01:24:03;;;;;;;9.63;3.40;;;;;;;9.76;100.00;96785.00;5046161;28;20048;-74
2022/05/22 01:26:32;;;;;;;10.05;3.42;;;;;;;9.69;100.00;96781.63;5038100;28;20089;-72
2022/05/22 01:29:11;;;;;;;9.23;3.38;;;;;;;9.67;100.00;96780.25;5048270;28;20044;-73
2022/05/22 01:31:36;;;;;;;10.45;4.00;;;;;;;9.70;100.00;96769.91;5048674;28;20105;-72
2022/05/22 01:34:04;;;;;;;10.23;3.90;;;;;;;9.73;100.00;96761.44;5044947;28;20083;-72
2022/05/22 01:36:30;;;;;;;9.85;4.00;;;;;;;9.60;100.00;96767.03;5048610;28;20595;-72
2022/05/22 01:38:56;;;;;;;12.23;4.22;;;;;;;9.48;100.00;96763.53;5046318;28;20045;-75
2022/05/22 01:41:26;;;;;;;9.07;3.90;;;;;;;9.51;100.00;96765.75;5051034;28;20348;-75
2022/05/22 01:43:53;;;;;;;11.63;3.97;;;;;;;9.54;100.00;96775.16;5049138;28;20469;-72
2022/05/22 01:46:20;;;;;;;9.15;3.67;;;;;;;9.43;100.00;96777.59;5053883;28;20064;-72
2022/05/22 01:49:01;;;;;;;8.75;3.83;;;;;;;9.28;100.00;96771.91;5046742;28;20041;-72
2022/05/22 01:51:35;;;;;;;6.75;4.22;;;;;;;9.32;100.00;96785.59;5048108;28;20127;-74
2022/05/22 01:54:03;;;;;;;14.02;4.53;;;;;;;9.21;100.00;96781.91;5053809;28;20071;-76
2022/05/22 01:56:32;;;;;;;12.05;4.32;;;;;;;9.21;100.00;96777.38;5047525;28;20037;-72
2022/05/22 01:58:59;;;;;;;10.82;4.28;;;;;;;9.31;100.00;96789.31;5051877;28;20119;-73
2022/05/22 02:01:33;;;;;;;13.77;4.15;;;;;;;9.40;100.00;96787.94;5043428;28;20380;-75
2022/05/22 02:04:04;;;;;;;12.85;4.25;;;;;;;9.45;100.00;96785.38;5045309;28;20052;-75
2022/05/22 02:06:33;;;;;;;10.82;3.75;;;;;;;9.47;100.00;96780.59;5053424;28;20060;-72
2022/05/22 02:09:07;;;;;;;8.85;3.67;;;;;;;9.46;100.00;96777.13;5049102;28;20052;-72
2022/05/22 02:11:37;;;;;;;8.75;3.83;;;;;;;9.43;100.00;96780.28;5048256;28;20048;-72
2022/05/22 02:14:03;;;;;;;9.27;3.90;;;;;;;9.47;100.00;96777.94;5047702;28;20067;-73
2022/05/22 02:16:28;;;;;;;8.27;3.38;;;;;;;9.46;100.00;96766.44;5049237;28;20123;-72
2022/05/22 02:18:54;;;;;;;8.98;3.90;;;;;;;9.41;100.00;96770.84;5044775;28;20041;-74
2022/05/22 02:21:21;;;;;;;12.65;4.10;;;;;;;9.39;100.00;96770.28;5048119;28;20568;-74
2022/05/22 02:23:47;;;;;;;11.27;3.75;;;;;;;9.37;100.00;96767.03;5063428;28;20050;-74
2022/05/22 02:26:13;;;;;;;7.38;3.58;;;;;;;9.38;100.00;96766.00;5052278;28;20044;-73
2022/05/22 02:28:40;;;;;;;10.55;3.33;;;;;;;9.37;100.00;96770.53;5050482;28;20419;-73
2022/05/22 02:31:07;;;;;;;10.32;3.90;;;;;;;9.36;100.00;96760.06;5049164;28;20048;-75
2022/05/22 02:33:32;;;;;;;12.43;3.97;;;;;;;9.31;100.00;96747.41;5045911;28;20056;-72
2022/05/22 02:36:06;;;;;;;7.43;4.05;;;;;;;9.35;100.00;96750.44;5053292;28;20049;-72
2022/05/22 02:38:35;;;;;;;8.63;3.50;;;;;;;9.25;100.00;96748.34;5053092;28;20036;-73
2022/05/22 02:41:06;;;;;;;13.70;4.15;;;;;;;9.24;100.00;96759.25;5048656;28;20408;-73
2022/05/22 02:43:32;;;;;;;11.25;3.38;;;;;;;8.90;100.00;96765.16;5049739;28;20044;-71
2022/05/22 02:45:59;;;;;;;10.48;3.30;;;;;;;8.80;100.00;96772.94;5049165;28;20503;-71
2022/05/22 02:48:25;;;;;;;6.93;3.38;;;;;;;8.83;100.00;96764.44;5059609;28;20859;-71
2022/05/22 02:51:17;;;;;;;;;;;;;;;8.69;100.00;96757.69;5046689;28;20044;-75
2022/05/22 02:53:43;;;;;;;12.30;3.40;;;;;;;8.67;100.00;96745.63;5045369;28;19960;-72
2022/05/22 02:56:23;;;;;;;10.52;3.90;;;;;;;8.81;100.00;96742.53;5047383;28;20114;-74
2022/05/22 02:59:20;;;;;;;19.73;4.53;;;;;;;8.77;100.00;96736.00;5052333;28;20044;-73
2022/05/22 03:02:24;;;;;;;7.57;3.50;;;;;;;8.72;100.00;96727.09;5040081;28;20335;-72
2022/05/22 03:04:53;;;;;;;9.75;3.80;;;;;;;8.72;100.00;96729.75;5048055;28;20598;-73
2022/05/22 03:07:20;;;;;;;8.48;3.55;;;;;;;8.76;100.00;96728.25;5045739;28;20031;-75
2022/05/22 03:09:47;;;;;;;12.45;4.50;;;;;;;8.81;100.00;96728.38;5051636;28;20045;-75
2022/05/22 03:12:23;;;;;;;11.63;3.50;;;;;;;8.85;100.00;96727.66;5061734;28;20033;-73
2022/05/22 03:14:54;;;;;;;10.93;3.83;;;;;;;8.84;100.00;96722.56;5054227;28;20124;-73
2022/05/22 03:17:21;;;;;;;9.95;3.70;;;;;;;8.82;100.00;96716.66;5048870;28;20037;-72
2022/05/22 03:19:55;;;;;;;9.85;3.38;;;;;;;8.83;100.00;96713.75;5046815;28;20040;-74
2022/05/22 03:22:21;;;;;;;10.10;3.60;;;;;;;8.71;100.00;96712.91;5046977;28;20037;-72
2022/05/22 03:24:47;;;;;;;12.25;3.70;;;;;;;8.61;100.00;96715.34;5047962;28;20072;-74
2022/05/22 03:27:15;;;;;;;8.57;3.60;;;;;;;8.56;100.00;96717.88;5037006;28;20108;-73
2022/05/22 03:29:43;;;;;;;10.63;3.90;;;;;;;8.55;100.00;96710.91;5052877;28;20353;-73
2022/05/22 03:32:09;;;;;;;13.77;4.35;;;;;;;8.53;100.00;96719.16;5063103;28;20045;-74
2022/05/22 03:34:37;;;;;;;7.95;3.97;;;;;;;8.54;100.00;96714.63;5051917;28;20041;-73
2022/05/22 03:37:03;;;;;;;8.10;4.15;;;;;;;8.57;100.00;96707.00;5046478;28;20135;-75
2022/05/22 03:39:29;;;;;;;8.00;4.03;;;;;;;8.65;100.00;96709.31;5035236;28;20033;-74
2022/05/22 03:41:55;;;;;;;15.85;4.50;;;;;;;8.71;100.00;96704.09;5048578;28;20037;-74
2022/05/22 03:44:22;;;;;;;16.95;4.07;;;;;;;8.60;100.00;96725.19;5047287;28;20068;-76
2022/05/22 03:46:48;;;;;;;23.40;5.38;;;;;;;8.55;100.00;96721.59;5049773;28;20123;-74
2022/05/22 03:49:16;;;;;;;14.32;4.15;;;;;;;8.64;100.00;96722.91;5042328;28;20056;-73
2022/05/22 03:51:43;;;;;;;15.55;4.32;;;;;;;8.77;100.00;96708.50;5051440;28;20040;-74
2022/05/22 03:54:13;;;;;;;11.57;4.40;;;;;;;8.91;100.00;96715.25;5044911;28;20044;-71
2022/05/22 03:56:42;;;;;;;8.75;4.03;;;;;;;9.03;100.00;96702.75;5052202;28;20043;-74
2022/05/22 03:59:18;;;;;;;10.05;3.95;;;;;;;9.13;100.00;96707.50;5044892;28;20090;-76
2022/05/22 04:01:44;;;;;;;13.40;4.13;;;;;;;9.18;100.00;96712.94;5048173;28;20616;-74
2022/05/22 04:04:09;;;;;;;12.88;4.15;;;;;;;9.26;100.00;96709.09;5029329;28;20025;-73
2022/05/22 04:06:35;;;;;;;10.73;4.72;;;;;;;9.23;100.00;96704.22;5049077;28;20044;-73
2022/05/22 04:09:02;;;;;;;10.05;3.92;;;;;;;9.29;100.00;96698.78;5049428;28;20186;-72
2022/05/22 04:11:48;;;;;;;12.07;3.88;;;;;;;9.34;100.00;96692.72;5047195;28;20056;-75
2022/05/22 04:14:18;;;;;;;11.77;4.03;;;;;;;9.42;100.00;96687.03;5046895;28;20036;-73
2022/05/22 04:16:49;;;;;;;10.70;3.65;;;;;;;9.49;100.00;96698.38;5053472;28;20114;-73
2022/05/22 04:19:15;;;;;;;12.73;4.13;;;;;;;9.58;100.00;96701.50;5046548;28;20064;-75
2022/05/22 04:21:41;;;;;;;7.38;3.60;;;;;;;9.72;100.00;96694.84;5045824;28;20040;-72
2022/05/22 04:26:56;;;;;;;10.45;3.65;;;;;;;10.09;100.00;96692.59;5045609;28;20139;-72
2022/05/22 04:29:22;;;;;;;6.15;3.38;;;;;;;10.10;100.00;96691.56;5044933;28;20628;-73
2022/05/22 04:31:48;;;;;;;13.63;4.65;;;;;;;10.09;100.00;96689.13;5046144;28;20285;-72
2022/05/22 04:34:22;;;;;;;10.48;4.35;;;;;;;10.27;100.00;96687.09;5044790;28;20049;-74
2022/05/22 04:36:48;;;;;;;9.88;3.97;;;;;;;10.37;100.00;96685.66;5045889;28;20259;-75
2022/05/22 04:39:40;;;;;;;11.32;4.75;;;;;;;10.39;100.00;96683.53;5042742;28;20092;-73
2022/05/22 04:42:08;;;;;;;11.73;4.60;;;;;;;10.51;100.00;96693.13;5044323;28;20129;-71
2022/05/22 04:44:34;;;;;;;15.05;4.82;;;;;;;10.58;100.00;96692.94;5042221;28;20579;-73
2022/05/22 04:47:25;;;;;;;11.30;4.25;;;;;;;10.72;100.00;96683.56;5047057;28;20025;-75
2022/05/22 04:50:11;;;;;;;10.55;4.90;;;;;;;10.77;100.00;96686.31;5047883;28;20040;-73
2022/05/22 04:52:57;;;;;;;12.15;4.47;;;;;;;10.68;100.00;96692.34;5049072;28;20044;-73
2022/05/22 04:55:23;;;;;;;13.23;4.15;;;;;;;10.64;100.00;96688.50;5047234;28;20621;-72
2022/05/22 04:57:48;;;;;;;10.43;4.40;;;;;;;10.58;100.00;96692.94;5055350;28;20364;-72
2022/05/22 05:00:15;;;;;;;11.90;4.40;;;;;;;10.53;100.00;96695.56;5049242;28;20116;-72
2022/05/22 05:02:51;;;;;;;11.27;4.50;;;;;;;10.64;100.00;96689.31;5038761;28;20103;-73
2022/05/22 05:05:17;;;;;;;9.98;4.32;;;;;;;10.76;100.00;96692.72;5047514;28;20557;-73
2022/05/22 05:07:42;;;;;;;8.90;4.00;;;;;;;10.84;100.00;96691.50;5048628;28;20044;-72
2022/05/22 05:10:44;;;;;;;12.48;4.80;;;;;;;10.88;100.00;96688.09;5042002;28;20480;-73
2022/05/22 05:13:23;;;;;;;7.85;4.00;;;;;;;10.96;100.00;96689.53;5049039;28;20886;-72
2022/05/22 05:16:09;;;;;;;18.95;5.07;;;;;;;11.10;100.00;96695.38;5054551;28;20045;-72
2022/05/22 05:18:42;;;;;;;10.02;3.85;;;;;;;11.22;100.00;96681.91;5055709;28;20503;-72
2022/05/22 05:21:12;;;;;;;9.80;4.22;;;;;;;11.31;100.00;96683.09;5049387;28;20052;-76
2022/05/22 05:23:39;;;;;;;14.52;4.72;;;;;;;11.37;100.00;96695.50;5045058;28;20324;-73
2022/05/22 05:26:25;;;;;;;11.23;3.88;;;;;;;11.45;100.00;96689.72;5055344;28;20506;-74
2022/05/22 05:28:53;;;;;;;11.48;4.20;;;;;;;11.55;100.00;96691.72;4704400;28;10000172;-76
2022/05/22 05:31:28;;;;;;;9.57;4.22;;;;;;;11.62;100.00;96689.66;5049434;28;20488;-75
2022/05/22 05:33:53;;;;;;;8.65;3.92;;;;;;;11.65;100.00;96689.16;5055755;28;20085;-72
2022/05/22 05:36:23;;;;;;;15.07;4.60;;;;;;;11.68;100.00;96688.66;5046052;28;20071;-72
2022/05/22 05:39:21;;;;;;;13.38;4.00;;;;;;;11.70;100.00;96690.03;5016268;28;20717;-72
2022/05/22 05:42:07;;;;;;;13.20;4.45;;;;;;;11.78;100.00;96690.66;5045811;28;20053;-74
2022/05/22 05:44:35;;;;;;;12.07;3.70;;;;;;;11.78;100.00;96693.34;5047856;28;20111;-71
2022/05/22 05:47:19;;;;;;;8.13;3.78;;;;;;;11.70;100.00;96690.03;5055541;28;20028;-74
2022/05/22 05:50:22;;;;;;;15.32;3.88;;;;;;;11.61;100.00;96688.84;5033919;28;20033;-72
2022/05/22 05:52:55;;;;;;;12.03;4.03;;;;;;;11.54;100.00;96690.91;5046583;28;20415;-72
2022/05/22 05:55:41;;;;;;;12.15;3.75;;;;;;;11.52;100.00;96685.00;5048629;28;20370;-71
2022/05/22 05:58:19;;;;;;;12.75;4.03;;;;;;;11.49;100.00;96688.16;5048488;28;20374;-75
2022/05/22 06:00:46;;;;;;;13.63;4.35;;;;;;;11.46;100.00;96677.13;5052534;28;20040;-72
2022/05/22 06:03:12;;;;;;;10.48;4.20;;;;;;;11.47;100.00;96676.06;5051517;28;20183;-74
2022/05/22 06:05:40;;;;;;;12.48;4.15;;;;;;;11.66;100.00;96680.84;5045535;28;20394;-72
2022/05/22 06:08:10;;;;;;;13.95;4.05;;;;;;;11.75;100.00;96675.88;4348109;28;10000188;-72
2022/05/22 06:10:37;;;;;;;11.80;4.75;;;;;;;11.81;100.00;96672.22;5060171;28;20139;-71
2022/05/22 06:13:15;;;;;;;12.65;4.90;;;;;;;11.98;100.00;96670.28;5035596;28;20626;-71
2022/05/22 06:15:43;;;;;;;14.23;5.68;;;;;;;12.21;100.00;96673.72;5042457;28;20551;-72
2022/05/22 06:18:10;;;;;;;13.65;5.03;;;;;;;12.34;100.00;96667.94;5034504;28;20041;-73
2022/05/22 06:20:36;;;;;;;19.80;5.55;;;;;;;12.39;100.00;96665.31;5043914;28;20385;-73
2022/05/22 06:23:10;;;;;;;15.65;5.32;;;;;;;12.42;100.00;96667.47;5045985;28;20373;-73
2022/05/22 06:26:02;;;;;;;;;;;;;;;12.42;100.00;96675.53;5045290;28;20106;-74
2022/05/22 06:28:53;;;;;;;14.57;4.90;;;;;;;12.34;100.00;96667.13;5041624;28;20031;-71
2022/05/22 06:31:46;;;;;;;16.27;5.22;;;;;;;12.31;100.00;96667.66;5031082;28;20660;-71
2022/05/22 06:34:38;;;;;;;14.00;5.05;;;;;;;12.35;100.00;96666.88;5052537;28;20032;-73
2022/05/22 06:37:24;;;;;;;20.38;7.10;;;;;;;12.46;100.00;96665.91;5042558;28;20041;-74
2022/05/22 06:40:13;;;;;;;12.07;4.72;;;;;;;12.68;100.00;96656.94;5061268;28;20036;-74
2022/05/22 06:42:52;;;;;;;13.70;5.22;;;;;;;12.85;100.00;96662.19;5049701;28;20048;-73
2022/05/22 06:45:48;;;;;;;12.15;5.45;;;;;;;12.95;100.00;96652.31;5043485;28;20657;-76
2022/05/22 06:48:42;;;;;;;19.70;4.50;;;;;;;13.09;100.00;96656.19;5047283;28;20045;-72
2022/05/22 06:51:40;;;;;;;10.32;4.32;;;;;;;13.13;100.00;96661.84;5018313;28;20056;-73
2022/05/22 06:54:14;;;;;;;10.98;4.35;;;;;;;13.17;100.00;96665.63;5043586;28;20051;-73
2022/05/22 06:56:51;;;;;;;10.27;4.60;;;;;;;13.31;100.00;96674.09;5047429;28;20044;-72
2022/05/22 06:59:55;;;;;;;15.65;5.07;;;;;;;13.44;100.00;96659.34;5037840;28;20045;-72
2022/05/22 07:02:39;;;;;;;16.27;5.35;;;;;;;13.68;100.00;96670.47;5044806;28;20497;-75
2022/05/22 07:05:12;;;;;;;14.95;4.88;;;;;;;13.82;100.00;96669.72;5045875;28;20518;-71
2022/05/22 07:08:01;;;;;;;17.08;4.97;;;;;;;13.99;100.00;96677.59;5040895;28;20059;-71
2022/05/22 07:13:57;;;;;;;15.40;5.00;;;;;;;14.40;100.00;96673.13;5051268;28;20085;-73
2022/05/22 07:16:35;;;;;;;16.02;4.90;;;;;;;14.75;100.00;96668.84;5045123;28;20075;-75
2022/05/22 07:19:17;;;;;;;12.25;4.68;;;;;;;15.27;100.00;96673.13;5050840;28;20317;-72
2022/05/22 07:22:00;;;;;;;12.20;4.90;;;;;;;15.69;100.00;96672.75;5046356;28;20457;-73
2022/05/22 07:24:42;;;;;;;11.57;3.97;;;;;;;15.72;100.00;96660.56;5044260;28;20468;-73
2022/05/22 07:27:30;;;;;;;13.80;4.70;;;;;;;15.48;100.00;96666.56;5043202;28;20068;-72
2022/05/22 07:30:24;;;;;;;10.48;3.40;;;;;;;15.47;100.00;96658.75;5050745;28;20397;-73
2022/05/22 07:32:56;;;;;;;9.55;4.03;;;;;;;15.20;100.00;96657.22;5031824;28;20468;-72
2022/05/22 07:35:41;;;;;;;14.55;4.47;;;;;;;15.25;100.00;96651.81;5046428;28;20055;-72
2022/05/22 07:38:25;;;;;;;12.65;4.30;;;;;;;15.22;100.00;96655.03;5043611;28;20111;-73
2022/05/22 07:41:15;;;;;;;17.13;4.03;;;;;;;15.17;100.00;96646.16;5043127;28;20052;-74
2022/05/22 07:43:59;;;;;;;14.55;3.88;;;;;;;15.48;100.00;96644.19;5044018;28;20044;-72
2022/05/22 07:46:30;;;;;;;10.05;3.90;;;;;;;15.57;100.00;96634.47;5043492;28;20508;-74
2022/05/22 07:52:27;;;;;;;15.23;4.30;;;;;;;15.26;100.00;96639.16;5046558;28;20484;-73
2022/05/22 07:55:25;;;;;;;18.58;5.00;;;;;;;15.45;100.00;96632.06;5026092;28;20136;-74
2022/05/22 07:58:04;;;;;;;14.93;4.97;;;;;;;15.50;100.00;96626.66;5047032;28;20447;-71
2022/05/22 08:00:38;;;;;;;15.02;5.47;;;;;;;15.43;100.00;96634.25;5044756;28;20041;-75
2022/05/22 08:03:10;;;;;;;13.32;5.20;;;;;;;15.55;100.00;96631.22;5043437;28;20504;-73
2022/05/22 08:05:36;;;;;;;15.00;5.70;;;;;;;15.62;100.00;96622.88;5046442;28;20507;-75
2022/05/22 08:08:04;;;;;;;15.23;5.75;;;;;;;15.83;100.00;96630.59;5046267;28;20029;-74
2022/05/22 08:10:49;;;;;;;17.75;5.93;;;;;;;16.37;100.00;96618.94;5044280;28;20051;-74
2022/05/22 08:13:22;;;;;;;11.75;5.53;;;;;;;16.93;100.00;96614.97;5044070;28;20124;-76
2022/05/22 08:15:47;;;;;;;13.35;5.55;;;;;;;16.88;100.00;96615.81;5043249;28;20543;-73
2022/05/22 08:18:24;;;;;;;14.07;5.07;;;;;;;16.93;100.00;96612.28;5050520;28;20071;-76
2022/05/22 08:20:52;;;;;;;18.23;5.07;;;;;;;17.05;100.00;96618.13;5047684;28;20526;-72
2022/05/22 08:23:21;;;;;;;20.45;5.30;;;;;;;16.77;100.00;96610.81;5049320;28;20040;-75
2022/05/22 08:25:59;;;;;;;;;;;;;;;16.78;100.00;96607.81;5052593;28;20741;-73
2022/05/22 08:28:27;;;;;;;10.10;3.90;;;;;;;17.01;100.00;96603.53;5049519;28;20159;-74
2022/05/22 08:30:52;;;;;;;9.65;3.85;;;;;;;17.10;100.00;96598.31;5049191;28;20041;-73
2022/05/22 08:33:19;;;;;;;11.05;3.70;;;;;;;17.17;100.00;96606.91;5049256;28;20055;-75
2022/05/22 08:35:45;;;;;;;15.25;4.28;;;;;;;17.27;100.00;96594.09;5051718;28;20036;-72
2022/05/22 08:38:11;;;;;;;12.57;4.63;;;;;;;17.33;100.00;96596.72;5052226;28;20484;-72
2022/05/22 08:41:08;;;;;;;18.48;4.43;;;;;;;17.25;100.00;96584.63;5049705;28;20162;-72
2022/05/22 08:43:41;;;;;;;15.93;4.45;;;;;;;17.10;100.00;96585.59;5048286;28;20041;-72
2022/05/22 08:46:13;;;;;;;12.80;4.40;;;;;;;17.15;100.00;96579.34;5049668;28;20534;-73
2022/05/22 08:48:56;;;;;;;14.57;4.53;;;;;;;17.07;100.00;96585.38;5049467;28;20438;-75
2022/05/22 08:51:50;;;;;;;12.52;4.20;;;;;;;17.06;100.00;96597.28;5050800;28;20040;-72
2022/05/22 08:54:24;;;;;;;16.60;4.40;;;;;;;16.88;100.00;96596.09;5047063;28;20052;-72
2022/05/22 08:59:39;;;;;;;12.77;4.10;;;;;;;17.18;100.00;96578.75;5051373;28;20036;-72
2022/05/22 09:02:22;;;;;;;14.57;3.67;;;;;;;17.15;100.00;96573.94;5047949;28;20059;-72
2022/05/22 09:05:11;;;;;;;13.25;3.63;;;;;;;17.40;100.00;96578.25;5050808;28;20151;-73
2022/05/22 09:07:50;;;;;;;9.40;2.88;;;;;;;17.44;100.00;96571.19;5051082;28;20107;-73
2022/05/22 09:10:20;;;;;;;16.08;3.50;;;;;;;17.28;100.00;96573.25;5049123;28;20171;-73
2022/05/22 09:13:01;;;;;;;11.45;3.83;;;;;;;17.42;100.00;96573.34;5048773;28;20028;-72
2022/05/22 09:16:02;;;;;;;15.10;3.63;;;;;;;17.39;100.00;96574.75;5049742;28;20143;-74
2022/05/22 09:18:52;;;;;;;11.48;3.70;;;;;;;17.54;100.00;96566.44;5048446;28;20068;-72
2022/05/22 09:21:32;;;;;;;10.15;3.60;;;;;;;17.88;100.00;96554.63;5046477;28;20564;-73
2022/05/22 09:24:16;;;;;;;12.73;3.67;;;;;;;18.08;94.22;96557.06;5048492;28;20049;-73
2022/05/22 09:26:47;;;;;;;10.63;3.45;;;;;;;18.07;97.29;96555.47;5049538;28;20098;-72
2022/05/22 09:29:25;;;;;;;12.23;4.35;;;;;;;18.16;97.25;96555.59;5045322;28;20607;-72
2022/05/22 09:32:05;;;;;;;11.23;3.00;;;;;;;17.96;95.98;96551.28;5047535;28;20052;-73
2022/05/22 09:34:54;;;;;;;11.73;3.00;;;;;;;17.42;94.13;96557.91;5046978;28;20150;-72
2022/05/22 09:37:56;;;;;;;12.15;3.10;;;;;;;17.45;95.87;96546.53;5046795;28;20064;-73
2022/05/22 09:40:39;;;;;;;7.95;2.75;;;;;;;17.93;90.66;96530.22;5046946;28;20041;-72
2022/05/22 09:43:14;;;;;;;9.10;3.00;;;;;;;17.85;93.15;96539.00;5046623;28;20147;-73
2022/05/22 09:46:04;;;;;;;12.05;2.88;;;;;;;17.58;89.33;96545.00;5046936;28;20064;-74
2022/05/22 09:48:46;;;;;;;8.73;2.70;;;;;;;17.69;91.57;96529.47;5046175;28;20037;-73
2022/05/22 09:51:47;;;;;;;10.48;2.95;;;;;;;17.75;91.64;96539.16;5052396;28;20052;-74
2022/05/22 09:54:27;;;;;;;7.32;2.83;;;;;;;18.14;90.59;96540.75;5049039;28;20578;-72
2022/05/22 09:57:28;;;;;;;8.38;2.25;;;;;;;18.66;90.92;96542.34;5048730;28;20032;-74
2022/05/22 10:00:12;;;;;;;11.40;2.83;;;;;;;19.32;85.07;96543.00;5047873;28;20041;-72
2022/05/22 10:02:49;;;;;;;9.90;2.70;;;;;;;19.88;82.94;96539.94;5044499;28;20056;-74
2022/05/22 10:05:40;;;;;;;8.45;2.90;;;;;;;20.60;76.12;96525.47;5050484;28;20055;-75
2022/05/22 10:08:30;;;;;;;9.18;2.47;;;;;;;20.64;71.80;96540.06;5048863;28;20448;-73
2022/05/22 10:11:14;;;;;;;10.13;2.70;;;;;;;20.22;72.52;96541.31;5049471;28;20360;-72
2022/05/22 10:14:02;;;;;;;8.63;2.72;;;;;;;19.87;75.38;96534.81;5047998;28;20477;-75
2022/05/22 10:16:46;;;;;;;10.20;2.65;;;;;;;20.15;82.18;96533.59;5048212;28;20152;-74
2022/05/22 10:19:57;;;;;;;11.82;2.25;;;;;;;20.97;76.86;96526.16;5046744;28;20506;-74
2022/05/22 10:22:27;;;;;;;10.77;2.45;;;;;;;21.58;79.16;96510.84;5045942;28;20109;-73
2022/05/22 10:24:55;;;;;;;12.00;2.47;;;;;;;22.29;67.10;96511.38;5047342;28;20037;-72
2022/05/22 10:27:35;;;;;;;9.20;2.08;;;;;;;22.51;65.93;96516.66;5053270;28;20043;-73
2022/05/22 10:30:14;;;;;;;14.77;2.30;;;;;;;22.23;71.45;96508.00;5045165;28;20395;-72
2022/05/22 10:32:42;;;;;;;6.78;2.38;;;;;;;22.52;73.20;96520.97;5045001;28;20045;-72
2022/05/22 10:35:32;;;;;;;8.52;2.10;;;;;;;22.99;62.47;96515.59;5047184;28;20121;-73
2022/05/22 10:38:10;;;;;;;8.55;2.03;;;;;;;22.40;70.36;96512.63;5048156;28;20052;-76
2022/05/22 10:43:29;;;;;;;7.00;2.28;;;;;;;21.45;73.44;96511.78;5046535;28;20131;-74
2022/05/22 10:45:55;;;;;;;9.85;2.65;;;;;;;21.14;73.67;96515.34;5048244;28;20083;-75
2022/05/22 10:48:24;;;;;;;9.70;2.15;;;;;;;21.33;73.00;96515.13;5044479;28;20037;-74
2022/05/22 10:50:56;;;;;;;8.07;2.40;;;;;;;21.73;69.75;96510.41;5047731;28;20585;-73
2022/05/22 10:53:55;;;;;;;6.47;2.17;;;;;;;22.50;56.21;96497.91;5048401;28;20036;-74
2022/05/22 10:56:29;;;;;;;10.60;2.65;;;;;;;22.55;62.10;96486.00;5048016;28;20072;-76
2022/05/22 10:58:57;;;;;;;9.48;1.98;;;;;;;22.97;62.30;96485.09;5047708;28;20044;-73
2022/05/22 11:01:27;;;;;;;8.18;2.00;;;;;;;23.11;61.40;96478.59;5046333;28;20040;-74
2022/05/22 11:04:15;;;;;;;6.78;2.00;;;;;;;22.90;54.21;96482.09;5046166;28;20036;-72
2022/05/22 11:06:57;;;;;;;6.53;1.90;;;;;;;22.36;57.20;96489.09;5045831;28;20491;-74
2022/05/22 11:09:25;;;;;;;6.13;1.92;;;;;;;22.15;63.44;96483.50;5047399;28;20048;-76
2022/05/22 11:12:07;;;;;;;6.72;1.98;;;;;;;21.85;59.03;96488.75;5048761;28;20574;-75
2022/05/22 11:14:35;;;;;;;5.30;1.90;;;;;;;21.84;60.44;96487.16;5047997;28;20052;-76
2022/05/22 11:17:10;;;;;;;7.03;2.10;;;;;;;24.35;47.31;96482.59;5044770;28;20044;-73
2022/05/22 11:19:39;;;;;;;7.32;2.10;;;;;;;26.60;39.68;96469.31;5053189;28;20041;-75
2022/05/22 11:22:36;;;;;;;8.50;1.88;;;;;;;28.51;32.01;96463.16;5045575;28;20047;-73
2022/05/22 11:25:23;;;;;;;6.63;2.17;;;;;;;28.20;32.80;96466.06;5046675;28;20529;-73
2022/05/22 11:28:04;;;;;;;8.95;2.25;;;;;;;28.91;30.52;96463.88;5038093;28;20367;-72
2022/05/22 11:31:05;;;;;;;9.10;2.00;;;;;;;30.03;30.38;96443.94;5044412;28;20322;-72
2022/05/22 11:33:38;;;;;;;7.28;1.90;;;;;;;30.86;28.63;96440.16;5047286;28;20574;-74
2022/05/22 11:36:39;;;;;;;9.05;2.17;;;;;;;30.73;28.21;96443.19;5048065;28;20479;-72
2022/05/22 11:39:26;;;;;;;12.13;2.78;;;;;;;32.99;24.58;96437.72;5045481;28;20485;-76
2022/05/22 11:42:07;;;;;;;5.20;1.75;;;;;;;34.56;23.89;96427.09;5048307;28;20045;-75
2022/05/22 11:44:50;;;;;;;8.20;1.83;;;;;;;35.68;22.82;96420.28;5049894;28;20327;-74
2022/05/22 11:47:22;;;;;;;8.18;1.63;;;;;;;37.38;20.13;96420.41;5045332;28;20041;-74
2022/05/22 11:50:13;;;;;;;6.57;1.77;;;;;;;37.68;18.51;96420.25;5045909;28;20045;-74
2022/05/22 11:52:54;;;;;;;4.60;1.58;;;;;;;37.10;19.97;96422.44;5048322;28;20033;-73
2022/05/22 11:55:29;;;;;;;15.10;1.95;;;;;;;37.52;20.53;96415.38;5046817;28;20049;-74
2022/05/22 11:58:02;;;;;;;5.80;1.92;;;;;;;36.51;18.67;96406.97;5048447;28;20072;-73
2022/05/22 12:00:47;;;;;;;9.88;2.95;;;;;;;35.37;20.45;96402.66;5049683;28;20519;-72
2022/05/22 12:03:38;;;;;;;6.97;1.80;;;;;;;36.31;20.63;96402.44;5049954;28;20435;-72
2022/05/22 12:06:27;;;;;;;6.82;2.00;;;;;;;38.04;19.60;96394.44;5052726;28;20041;-75
2022/05/22 12:09:12;;;;;;;7.07;1.88;;;;;;;40.10;18.84;96397.88;5048753;28;20048;-74
2022/05/22 12:11:51;;;;;;;5.15;2.13;;;;;;;40.41;17.02;96397.34;5052856;28;20091;-72
2022/05/22 12:14:22;;;;;;;7.13;1.67;;;;;;;40.94;16.64;96397.75;5050940;28;20044;-74
2022/05/22 12:17:07;;;;;;;6.15;1.80;;;;;;;41.12;14.71;96406.38;5051291;28;20539;-73
2022/05/22 12:19:42;;;;;;;4.95;1.42;;;;;;;40.60;16.40;96404.00;5050661;28;20064;-76